Nearby METAR Reports

 

KPRB - Paso Robles, California, USA
Distance from station: SW 1mi, 1km
Updated: 04/19/2014 1:53am
Clear
Clear
 Wind from S
Wind: S 3 mph , 6 km/h
Temperature: 50°F , 10°C
Dew Point: 46°F , 8°C
Humidity: 88%
Barometer: 29.96 inHg , 1014.6 hPa
Clouds: Clear
Visibility: 10 miles , 16 km
2014/04/19 08:53 KPRB 190853Z AUTO 17003KT 10SM CLR 10/08 A2996 RMK AO2 SLP142 T01000078 55002 TSNO
KSBP - San Luis Obispo, California, USA
Distance from station: S 30mi, 49km
Updated: 04/19/2014 1:56am
Overcast
Overcast
 Wind from NNW
Wind: NNW 8 mph , 13 km/h
Temperature: 54°F , 12°C
Dew Point: 48°F , 9°C
Humidity: 82%
Barometer: 29.97 inHg , 1014.9 hPa
Clouds: Overcast
Visibility: 10 miles , 16 km
Cloud details: Overcast 900 ft
2014/04/19 08:56 KSBP 190856Z AUTO 34007KT 10SM OVC009 12/09 A2997 RMK AO2 SLP148 T01220094 55005
 
KSMX - Santa Maria, California, USA
Distance from station: S 54mi, 87km
Updated: 04/19/2014 1:51am
Overcast
Overcast
 Wind from W
Wind: W 7 mph , 11 km/h
Temperature: 55°F , 13°C
Dew Point: 48°F , 9°C
Humidity: 77%
Barometer: 29.97 inHg , 1014.9 hPa
Clouds: Overcast
Visibility: 10 miles , 16 km
Cloud details: Overcast 1200 ft
2014/04/19 08:51 KSMX 190851Z AUTO 27006KT 10SM OVC012 13/09 A2997 RMK AO2 SLP151 T01280094 55006 TSNO $
KNLC - Lemoore Nas/Reev, California, USA
Distance from station: NE 58mi, 94km
Updated: 04/19/2014 1:56am
Clear
Clear
 Wind from N
Wind: N 6 mph , 9 km/h
Barometer: 29.89 inHg , 1012.2 hPa
Clouds: Clear
Visibility: 10 miles , 16 km
2014/04/19 08:56 KNLC 190856Z AUTO 35005KT 10SM CLR A2989 RMK AO2 SLPNO 52003 $
 
KVBG - Vandenberg Afb, California, USA
Distance from station: S 65mi, 105km
Updated: 04/19/2014 2:20am
Overcast
Overcast
 Wind from NNW
Wind: NNW 3 mph , 6 km/h
Temperature: 52°F , 11°C
Dew Point: 48°F , 9°C
Humidity: 88%
Barometer: 29.97 inHg , 1014.9 hPa
Clouds: Overcast
Visibility: 10 miles , 16 km
Cloud details: Overcast 700 ft
2014/04/19 09:20 KVBG 190920Z AUTO 33003KT 10SM OVC007 11/09 A2997 RMK AO2 TSNO
KLPC - Lompoc, California, USA
Distance from station: S 70mi, 113km
Updated: 04/19/2014 2:15am
Overcast
Overcast
 Wind from WNW
Wind: WNW 5 mph , 7 km/h
Temperature: 54°F , 12°C
Dew Point: 46°F , 8°C
Humidity: 77%
Barometer: 29.98 inHg , 1015.2 hPa
Clouds: Overcast
Visibility: 10 miles , 16 km
Cloud details: Overcast 1200 ft
2014/04/19 09:15 KLPC 190915Z AUTO 29004KT 10SM OVC012 12/08 A2998 RMK AO1
 
KHJO - Hanford, California, USA
Distance from station: NE 72mi, 116km
Updated: 04/19/2014 1:53am
Clear
Clear
 Wind from NW
Wind: NW 7 mph , 11 km/h
Temperature: 63°F , 17°C
Dew Point: 48°F , 9°C
Humidity: 59%
Barometer: 29.88 inHg , 1011.9 hPa
Clouds: Clear
Visibility: 10 miles , 16 km
2014/04/19 08:53 KHJO 190853Z AUTO 32006KT 10SM CLR 17/09 A2988 RMK AO2 SLP120 T01720089 50003